createdAt,value
2023-04-01T00:01:04.151Z,88.90
2023-04-01T00:03:31.575Z,89.00
2023-04-01T00:05:59.263Z,89.70
2023-04-01T00:08:26.380Z,88.90
2023-04-01T00:10:53.265Z,88.90
2023-04-01T00:13:20.182Z,89.00
2023-04-01T00:15:47.095Z,89.00
2023-04-01T00:18:13.862Z,89.00
2023-04-01T00:20:43.681Z,89.10
2023-04-01T00:23:10.394Z,89.10
2023-04-01T00:25:37.094Z,89.00
2023-04-01T00:28:03.882Z,88.90
2023-04-01T00:30:30.633Z,89.00
2023-04-01T00:32:57.429Z,89.00
2023-04-01T00:35:24.196Z,89.00
2023-04-01T00:37:50.939Z,89.00
2023-04-01T00:40:27.859Z,89.00
2023-04-01T00:42:54.500Z,89.20
2023-04-01T00:45:38.195Z,89.10
2023-04-01T00:48:26.052Z,89.10
2023-04-01T00:51:02.021Z,89.20
2023-04-01T00:53:29.235Z,89.30
2023-04-01T00:56:06.283Z,89.20
2023-04-01T00:58:37.110Z,89.20
2023-04-01T01:01:03.876Z,89.20
2023-04-01T01:03:30.571Z,89.20
2023-04-01T01:06:12.481Z,89.20
2023-04-01T01:08:42.367Z,89.30
2023-04-01T01:11:09.709Z,89.20
2023-04-01T01:14:21.391Z,89.20
2023-04-01T01:16:53.082Z,89.30
2023-04-01T01:19:44.373Z,89.20
2023-04-01T01:22:33.646Z,89.30
2023-04-01T01:25:11.929Z,89.20
2023-04-01T01:27:39.404Z,89.20
2023-04-01T01:30:51.370Z,89.20
2023-04-01T01:33:26.523Z,89.20
2023-04-01T01:35:54.571Z,89.20
2023-04-01T01:38:23.977Z,89.50
2023-04-01T01:40:51.739Z,89.30
2023-04-01T01:43:20.442Z,89.20
2023-04-01T01:45:52.487Z,89.10
2023-04-01T01:48:19.188Z,89.20
2023-04-01T01:50:46.494Z,89.10
2023-04-01T01:53:13.647Z,89.20
2023-04-01T01:55:42.290Z,89.10
2023-04-01T01:58:24.982Z,89.20
2023-04-01T02:01:00.176Z,89.20
2023-04-01T02:03:28.156Z,89.10
2023-04-01T02:05:56.170Z,89.00
2023-04-01T02:08:43.376Z,89.00
2023-04-01T02:11:11.474Z,89.00
2023-04-01T02:14:18.123Z,89.10
2023-04-01T02:16:46.168Z,89.00
2023-04-01T02:19:12.867Z,88.90
2023-04-01T02:21:39.580Z,88.90
2023-04-01T02:24:08.509Z,88.90
2023-04-01T02:26:35.559Z,88.90
2023-04-01T02:29:02.479Z,88.90
2023-04-01T02:31:29.316Z,88.90
2023-04-01T02:33:56.062Z,88.90
2023-04-01T02:36:22.841Z,88.90
2023-04-01T02:38:49.620Z,88.80
2023-04-01T02:41:16.327Z,88.80
2023-04-01T02:43:43.043Z,88.80
2023-04-01T02:46:09.883Z,88.70
2023-04-01T02:48:36.702Z,88.70
2023-04-01T02:51:03.518Z,88.70
2023-04-01T02:53:30.219Z,88.80
2023-04-01T02:55:57.029Z,88.90
2023-04-01T02:58:23.739Z,88.80
2023-04-01T03:00:50.529Z,88.90
2023-04-01T03:03:17.355Z,88.80
2023-04-01T03:05:44.125Z,88.90
2023-04-01T03:08:10.843Z,88.80
2023-04-01T03:10:37.516Z,88.80
2023-04-01T03:13:04.320Z,88.70
2023-04-01T03:15:31.271Z,88.70
2023-04-01T03:17:58.358Z,88.70
2023-04-01T03:20:25.120Z,88.60
2023-04-01T03:22:51.833Z,88.50
2023-04-01T03:25:18.968Z,88.60
2023-04-01T03:27:45.653Z,88.70
2023-04-01T03:30:12.491Z,88.60
2023-04-01T03:32:39.282Z,88.50
2023-04-01T03:35:06.506Z,88.50
2023-04-01T03:37:33.241Z,88.50
2023-04-01T03:40:00.108Z,88.50
2023-04-01T03:42:26.927Z,88.50
2023-04-01T03:44:53.615Z,88.40
2023-04-01T03:47:20.413Z,88.40
2023-04-01T03:49:47.082Z,88.20
2023-04-01T03:52:13.877Z,88.30
2023-04-01T03:54:40.557Z,89.20
2023-04-01T03:57:07.411Z,88.40
2023-04-01T03:59:34.207Z,88.50
2023-04-01T04:02:00.944Z,88.40
2023-04-01T04:04:28.398Z,88.40
2023-04-01T04:06:55.440Z,88.40
2023-04-01T04:09:22.155Z,88.40
2023-04-01T04:11:49.468Z,88.20
2023-04-01T04:14:16.140Z,88.20
2023-04-01T04:16:43.001Z,88.30
2023-04-01T04:19:09.686Z,88.20
2023-04-01T04:21:36.406Z,88.30
2023-04-01T04:24:03.604Z,88.30
2023-04-01T04:26:30.334Z,88.20
2023-04-01T04:28:57.066Z,89.00
2023-04-01T04:31:24.423Z,88.30
2023-04-01T04:33:51.303Z,88.30
2023-04-01T04:36:18.784Z,88.40
2023-04-01T04:38:45.658Z,88.20
2023-04-01T04:41:13.161Z,88.20
2023-04-01T04:43:40.709Z,88.30
2023-04-01T04:46:11.130Z,88.40
2023-04-01T04:48:37.910Z,88.40
2023-04-01T04:51:04.700Z,88.40
2023-04-01T04:53:31.433Z,88.40
2023-04-01T04:55:58.121Z,88.30
2023-04-01T04:58:24.864Z,88.20
2023-04-01T05:00:51.580Z,88.30
2023-04-01T05:03:18.375Z,88.40
2023-04-01T05:05:54.614Z,88.20
2023-04-01T05:08:21.462Z,88.30
2023-04-01T05:10:48.203Z,88.10
2023-04-01T05:13:14.949Z,88.20
2023-04-01T05:15:41.691Z,88.20
2023-04-01T05:18:08.502Z,88.20
2023-04-01T05:20:35.278Z,88.10
2023-04-01T05:23:02.272Z,88.20
2023-04-01T05:25:29.018Z,88.20
2023-04-01T05:27:55.808Z,88.20
2023-04-01T05:30:22.520Z,88.10
2023-04-01T05:32:49.312Z,88.00
2023-04-01T05:35:16.122Z,88.00
2023-04-01T05:37:42.843Z,88.10
2023-04-01T05:40:10.124Z,88.10
2023-04-01T05:42:38.127Z,88.10
2023-04-01T05:45:05.738Z,87.90
2023-04-01T05:47:32.475Z,87.90
2023-04-01T05:50:01.637Z,88.00
2023-04-01T05:52:28.389Z,87.90
2023-04-01T05:54:55.060Z,87.80
2023-04-01T05:57:21.801Z,87.70
2023-04-01T05:59:48.484Z,87.70
2023-04-01T06:02:17.698Z,87.80
2023-04-01T06:04:44.549Z,87.70
2023-04-01T06:07:13.068Z,87.70
2023-04-01T06:09:39.844Z,87.70
2023-04-01T06:12:06.561Z,87.70
2023-04-01T06:14:52.479Z,87.80
2023-04-01T06:17:31.437Z,87.70
2023-04-01T06:20:04.009Z,87.70
2023-04-01T06:22:36.590Z,87.50
2023-04-01T06:25:26.184Z,87.60
2023-04-01T06:28:11.497Z,87.60
2023-04-01T06:30:44.408Z,87.70
2023-04-01T06:33:29.280Z,87.60
2023-04-01T06:36:12.140Z,87.50
2023-04-01T06:38:45.562Z,87.50
2023-04-01T06:41:27.734Z,87.40
2023-04-01T06:44:38.810Z,87.40
2023-04-01T06:47:34.371Z,87.40
2023-04-01T06:50:01.172Z,87.30
2023-04-01T06:52:49.571Z,87.30
2023-04-01T06:55:42.374Z,87.40
2023-04-01T06:58:22.164Z,87.50
2023-04-01T07:00:50.811Z,87.60
2023-04-01T07:03:20.504Z,87.40
2023-04-01T07:05:47.254Z,88.00
2023-04-01T07:08:19.218Z,87.50
2023-04-01T07:10:55.672Z,87.60
2023-04-01T07:13:52.384Z,87.60
2023-04-01T07:16:32.124Z,87.70
2023-04-01T07:19:22.066Z,87.70
2023-04-01T07:21:53.954Z,87.60
2023-04-01T07:24:33.140Z,87.60
2023-04-01T07:27:00.194Z,87.50
2023-04-01T07:29:27.051Z,87.50
2023-04-01T07:32:03.041Z,87.50
2023-04-01T07:34:32.265Z,87.40
2023-04-01T07:37:27.724Z,87.30
2023-04-01T07:40:13.267Z,87.30
2023-04-01T07:42:46.080Z,87.10
2023-04-01T07:45:15.554Z,87.20
2023-04-01T07:48:07.418Z,87.00
2023-04-01T07:50:37.342Z,87.10
2023-04-01T07:53:16.135Z,87.20
2023-04-01T07:56:01.525Z,87.20
2023-04-01T07:58:59.579Z,87.10
2023-04-01T08:01:34.589Z,87.10
2023-04-01T08:04:27.724Z,87.10
2023-04-01T08:07:04.327Z,86.90
2023-04-01T08:09:54.766Z,87.00
2023-04-01T08:12:33.353Z,87.10
2023-04-01T08:15:29.317Z,87.10
2023-04-01T08:17:56.074Z,87.20
2023-04-01T08:20:29.038Z,87.00
2023-04-01T08:23:06.634Z,87.00
2023-04-01T08:25:33.908Z,87.10
2023-04-01T08:28:32.078Z,86.90
2023-04-01T08:31:04.836Z,87.10
2023-04-01T08:33:32.169Z,87.00
2023-04-01T08:36:21.776Z,87.20
2023-04-01T08:39:09.953Z,87.30
2023-04-01T08:41:36.720Z,86.90
2023-04-01T08:44:32.618Z,86.80
2023-04-01T08:47:16.174Z,86.70
2023-04-01T08:50:18.188Z,86.60
2023-04-01T08:53:34.416Z,86.50
2023-04-01T08:56:21.935Z,86.50
2023-04-01T08:59:14.701Z,86.60
2023-04-01T09:01:44.298Z,86.60
2023-04-01T09:04:44.580Z,86.60
2023-04-01T09:07:49.707Z,86.40
2023-04-01T09:10:32.852Z,86.20
2023-04-01T09:13:17.914Z,86.40
2023-04-01T09:16:13.873Z,86.20
2023-04-01T09:19:10.077Z,86.10
2023-04-01T09:21:53.616Z,86.20
2023-04-01T09:24:46.865Z,86.30
2023-04-01T09:27:28.234Z,86.10
2023-04-01T09:30:11.548Z,86.30
2023-04-01T09:33:37.580Z,86.40
2023-04-01T09:36:31.081Z,86.30
2023-04-01T09:38:59.974Z,86.20
2023-04-01T09:42:08.871Z,86.20
2023-04-01T09:44:48.547Z,86.10
2023-04-01T09:47:18.153Z,85.90
2023-04-01T09:50:18.318Z,85.80
2023-04-01T09:52:48.143Z,85.70
2023-04-01T09:55:39.603Z,85.70
2023-04-01T09:58:18.622Z,85.60
2023-04-01T10:01:01.032Z,85.60
2023-04-01T10:03:36.729Z,85.60
2023-04-01T10:07:00.546Z,85.70
2023-04-01T10:09:41.881Z,85.60
2023-04-01T10:12:32.736Z,85.50
2023-04-01T10:15:14.330Z,85.50
2023-04-01T10:18:15.390Z,85.50
2023-04-01T10:21:01.304Z,85.40
2023-04-01T10:23:52.989Z,85.30
2023-04-01T10:26:27.842Z,85.30
2023-04-01T10:29:39.697Z,85.10
2023-04-01T10:32:24.339Z,85.10
2023-04-01T10:35:21.267Z,85.20
2023-04-01T10:38:06.624Z,85.20
2023-04-01T10:40:58.887Z,85.20
2023-04-01T10:43:44.402Z,86.00
2023-04-01T10:46:17.267Z,85.10
2023-04-01T10:49:08.229Z,85.10
2023-04-01T10:52:08.716Z,84.80
2023-04-01T10:54:55.938Z,84.70
2023-04-01T10:57:31.817Z,84.70
2023-04-01T11:00:26.127Z,84.80
2023-04-01T11:03:04.593Z,84.80
2023-04-01T11:05:52.665Z,84.70
2023-04-01T11:08:34.983Z,84.60
2023-04-01T11:11:35.400Z,84.70
2023-04-01T11:14:11.297Z,84.50
2023-04-01T11:17:02.698Z,84.60
2023-04-01T11:19:52.070Z,84.50
2023-04-01T11:22:37.798Z,84.60
2023-04-01T11:25:22.627Z,84.30
2023-04-01T11:28:07.937Z,84.20
2023-04-01T11:30:59.525Z,84.20
2023-04-01T11:33:37.854Z,84.30
2023-04-01T11:36:26.614Z,84.30
2023-04-01T11:39:16.118Z,84.50
2023-04-01T11:41:45.553Z,84.50
2023-04-01T11:44:30.592Z,84.50
2023-04-01T11:47:34.334Z,84.30
2023-04-01T11:50:22.158Z,84.40
2023-04-01T11:53:24.887Z,84.60
2023-04-01T11:56:08.679Z,84.70
2023-04-01T11:59:07.667Z,84.20
2023-04-01T12:02:06.681Z,83.80
2023-04-01T12:04:52.021Z,83.50
2023-04-01T12:07:19.094Z,83.80
2023-04-01T12:09:55.365Z,83.80
2023-04-01T12:12:54.075Z,83.90
2023-04-01T12:15:55.904Z,84.20
2023-04-01T12:18:29.295Z,84.10
2023-04-01T12:21:04.351Z,83.70
2023-04-01T12:24:05.167Z,83.40
2023-04-01T12:27:07.211Z,83.00
2023-04-01T12:29:45.896Z,83.00
2023-04-01T12:32:50.172Z,83.30
2023-04-01T12:35:18.868Z,83.30
2023-04-01T12:38:08.957Z,83.50
2023-04-01T12:40:45.536Z,83.30
2023-04-01T12:43:50.019Z,83.50
2023-04-01T12:46:41.354Z,83.50
2023-04-01T12:49:43.656Z,84.30
2023-04-01T12:52:24.515Z,83.40
2023-04-01T12:55:02.520Z,83.50
2023-04-01T12:57:47.340Z,83.50
2023-04-01T13:00:33.544Z,83.40
2023-04-01T13:03:38.803Z,83.20
2023-04-01T13:06:12.619Z,83.10
2023-04-01T13:08:45.662Z,83.00
2023-04-01T13:11:24.655Z,82.90
2023-04-01T13:13:58.809Z,82.70
2023-04-01T13:16:31.017Z,82.80
2023-04-01T13:19:20.748Z,82.80
2023-04-01T13:21:47.410Z,82.40
2023-04-01T13:24:46.542Z,82.10
2023-04-01T13:27:28.650Z,81.40
2023-04-01T13:30:04.391Z,81.00
2023-04-01T13:32:59.998Z,79.70
2023-04-01T13:35:32.979Z,79.20
2023-04-01T13:38:21.979Z,79.20
2023-04-01T13:41:26.327Z,78.90
2023-04-01T13:44:02.208Z,79.00
2023-04-01T13:46:59.414Z,79.20
2023-04-01T13:49:38.459Z,79.30
2023-04-01T13:52:26.097Z,79.70
2023-04-01T13:54:52.873Z,79.60
2023-04-01T13:57:49.047Z,79.60
2023-04-01T14:00:24.721Z,79.00
2023-04-01T14:03:04.808Z,79.00
2023-04-01T14:05:45.225Z,78.80
2023-04-01T14:08:24.126Z,79.00
2023-04-01T14:10:54.926Z,79.00
2023-04-01T14:13:36.318Z,78.80
2023-04-01T14:16:29.200Z,78.70
2023-04-01T14:19:29.956Z,78.60
2023-04-01T14:22:21.628Z,78.80
2023-04-01T14:24:54.959Z,78.70
2023-04-01T14:27:24.931Z,78.30
2023-04-01T14:30:42.514Z,78.30
2023-04-01T14:33:42.728Z,78.00
2023-04-01T14:36:30.730Z,78.10
2023-04-01T14:39:28.564Z,78.20
2023-04-01T14:42:26.149Z,78.20
2023-04-01T14:45:29.509Z,77.80
2023-04-01T14:48:05.466Z,77.70
2023-04-01T14:50:42.344Z,77.70
2023-04-01T14:53:27.584Z,78.00
2023-04-01T14:56:04.160Z,78.00
2023-04-01T14:59:00.480Z,77.60
2023-04-01T15:01:33.536Z,77.20
2023-04-01T15:04:37.914Z,77.40
2023-04-01T15:07:32.167Z,77.50
2023-04-01T15:10:06.839Z,77.70
2023-04-01T15:12:49.812Z,78.00
2023-04-01T15:15:32.057Z,78.00
2023-04-01T15:18:04.912Z,78.10
2023-04-01T15:20:56.528Z,78.20
2023-04-01T15:23:26.863Z,78.20
2023-04-01T15:26:08.909Z,78.10
2023-04-01T15:28:47.776Z,78.10
2023-04-01T15:31:28.156Z,78.40
2023-04-01T15:34:03.691Z,78.30
2023-04-01T15:36:36.809Z,78.40
2023-04-01T15:39:14.480Z,78.50
2023-04-01T15:42:17.426Z,78.50
2023-04-01T15:44:56.523Z,78.50
2023-04-01T15:47:26.365Z,78.60
2023-04-01T15:50:02.689Z,78.50
2023-04-01T15:53:04.666Z,78.40
2023-04-01T15:55:51.221Z,78.50
2023-04-01T15:58:30.191Z,78.50
2023-04-01T16:01:19.355Z,78.40
2023-04-01T16:04:04.299Z,78.40
2023-04-01T16:06:52.575Z,78.40
2023-04-01T16:09:50.485Z,78.40
2023-04-01T16:12:30.659Z,78.30
2023-04-01T16:15:38.513Z,78.40
2023-04-01T16:18:24.889Z,78.20
2023-04-01T16:21:13.723Z,78.40
2023-04-01T16:23:51.086Z,78.40
2023-04-01T16:26:38.047Z,78.50
2023-04-01T16:29:18.963Z,78.50
2023-04-01T16:32:07.096Z,78.50
2023-04-01T16:35:03.273Z,78.50
2023-04-01T16:37:44.738Z,78.50
2023-04-01T16:40:34.720Z,78.50
2023-04-01T16:43:15.244Z,78.70
2023-04-01T16:45:53.535Z,78.70
2023-04-01T16:48:24.033Z,78.80
2023-04-01T16:51:01.886Z,78.70
2023-04-01T16:53:46.948Z,78.80
2023-04-01T16:56:22.892Z,78.80
2023-04-01T16:58:58.902Z,78.70
2023-04-01T17:01:32.641Z,78.80
2023-04-01T17:04:13.272Z,78.80
2023-04-01T17:06:47.087Z,78.70
2023-04-01T17:09:29.604Z,78.80
2023-04-01T17:12:10.718Z,78.90
2023-04-01T17:14:59.378Z,78.80
2023-04-01T17:17:38.222Z,78.80
2023-04-01T17:20:13.733Z,78.80
2023-04-01T17:22:46.516Z,78.80
2023-04-01T17:25:19.059Z,78.80
2023-04-01T17:27:55.022Z,79.50
2023-04-01T17:30:40.125Z,78.60
2023-04-01T17:33:19.803Z,78.50
2023-04-01T17:35:52.829Z,78.60
2023-04-01T17:38:28.022Z,78.70
2023-04-01T17:41:24.012Z,78.60
2023-04-01T17:44:06.349Z,78.60
2023-04-01T17:46:33.082Z,78.60
2023-04-01T17:49:21.245Z,78.60
2023-04-01T17:51:51.803Z,78.60
2023-04-01T17:54:18.682Z,78.60
2023-04-01T17:57:14.574Z,78.60
2023-04-01T17:59:50.190Z,78.60
2023-04-01T18:02:25.889Z,78.60
2023-04-01T18:05:19.613Z,78.60
2023-04-01T18:08:14.054Z,78.50
2023-04-01T18:11:03.863Z,78.60
2023-04-01T18:13:36.402Z,78.60
2023-04-01T18:16:12.220Z,78.60
2023-04-01T18:18:45.411Z,78.60
2023-04-01T18:21:32.587Z,78.60
2023-04-01T18:24:06.716Z,78.50
2023-04-01T18:26:34.580Z,78.60
2023-04-01T18:29:17.930Z,78.50
2023-04-01T18:31:46.873Z,78.50
2023-04-01T18:34:18.658Z,78.50
2023-04-01T18:36:48.476Z,78.50
2023-04-01T18:39:18.824Z,78.50
2023-04-01T18:41:51.347Z,78.60
2023-04-01T18:44:56.162Z,78.60
2023-04-01T18:47:45.569Z,78.60
2023-04-01T18:50:42.097Z,78.50
2023-04-01T18:53:28.528Z,79.30
2023-04-01T18:56:03.753Z,78.50
2023-04-01T18:58:36.940Z,78.50
2023-04-01T19:01:24.195Z,78.50
2023-04-01T19:04:30.961Z,78.50
2023-04-01T19:07:01.052Z,78.50
2023-04-01T19:09:31.666Z,78.50
2023-04-01T19:12:10.416Z,78.50
2023-04-01T19:15:09.200Z,78.50
2023-04-01T19:17:54.499Z,78.60
2023-04-01T19:20:52.263Z,78.70
2023-04-01T19:23:37.670Z,78.80
2023-04-01T19:26:20.749Z,79.00
2023-04-01T19:28:53.945Z,79.10
2023-04-01T19:31:50.962Z,79.00
2023-04-01T19:34:47.079Z,79.30
2023-04-01T19:38:04.792Z,79.60
2023-04-01T19:40:53.177Z,79.80
2023-04-01T19:43:25.903Z,79.90
2023-04-01T19:45:58.348Z,80.00
2023-04-01T19:48:53.030Z,80.00
2023-04-01T19:51:28.467Z,80.10
2023-04-01T19:54:04.537Z,80.30
2023-04-01T19:56:42.429Z,80.40
2023-04-01T19:59:46.693Z,80.50
2023-04-01T20:02:25.737Z,80.60
2023-04-01T20:04:54.502Z,80.60
2023-04-01T20:07:38.681Z,80.80
2023-04-01T20:10:21.782Z,81.70
2023-04-01T20:12:48.493Z,80.80
2023-04-01T20:15:37.209Z,80.90
2023-04-01T20:18:07.115Z,81.20
2023-04-01T20:20:34.130Z,81.20
2023-04-01T20:23:12.704Z,81.20
2023-04-01T20:25:43.524Z,81.50
2023-04-01T20:28:19.606Z,81.40
2023-04-01T20:30:52.382Z,81.50
2023-04-01T20:33:19.175Z,81.40
2023-04-01T20:36:01.533Z,81.40
2023-04-01T20:38:59.861Z,81.50
2023-04-01T20:41:56.740Z,81.40
2023-04-01T20:44:53.380Z,81.40
2023-04-01T20:47:52.847Z,81.40
2023-04-01T20:50:39.242Z,81.50
2023-04-01T20:53:17.767Z,81.60
2023-04-01T20:55:50.549Z,81.60
2023-04-01T20:58:24.287Z,81.60
2023-04-01T21:01:12.942Z,81.50
2023-04-01T21:03:50.497Z,81.60
2023-04-01T21:07:03.941Z,81.50
2023-04-01T21:10:03.590Z,81.50
2023-04-01T21:12:44.353Z,81.60
2023-04-01T21:15:20.232Z,81.50
2023-04-01T21:18:09.354Z,81.70
2023-04-01T21:21:12.259Z,81.70
2023-04-01T21:24:09.863Z,81.60
2023-04-01T21:26:49.445Z,81.70
2023-04-01T21:29:38.296Z,81.60
2023-04-01T21:32:36.018Z,81.60
2023-04-01T21:35:29.385Z,81.70
2023-04-01T21:38:01.950Z,81.60
2023-04-01T21:40:46.143Z,81.50
2023-04-01T21:43:25.863Z,81.60
2023-04-01T21:46:33.184Z,81.50
2023-04-01T21:49:24.845Z,81.50
2023-04-01T21:52:09.464Z,81.50
2023-04-01T21:55:15.508Z,81.50
2023-04-01T21:58:04.061Z,81.50
2023-04-01T22:00:38.453Z,81.40
2023-04-01T22:03:27.182Z,81.50
2023-04-01T22:05:59.389Z,81.50
2023-04-01T22:08:48.134Z,81.30
2023-04-01T22:11:33.009Z,81.30
2023-04-01T22:14:29.585Z,81.30
2023-04-01T22:17:06.927Z,81.40
2023-04-01T22:19:40.354Z,81.40
2023-04-01T22:22:50.687Z,81.40
2023-04-01T22:25:25.967Z,81.40
2023-04-01T22:28:01.312Z,81.40
2023-04-01T22:30:34.679Z,81.40
2023-04-01T22:33:24.865Z,81.40
2023-04-01T22:36:02.274Z,81.20
2023-04-01T22:38:57.862Z,81.30
2023-04-01T22:41:52.912Z,81.20
2023-04-01T22:44:37.656Z,82.00
2023-04-01T22:47:33.998Z,81.20
2023-04-01T22:50:05.582Z,81.10
2023-04-01T22:52:51.191Z,81.20
2023-04-01T22:55:26.766Z,81.30
2023-04-01T22:58:00.685Z,81.50
2023-04-01T23:00:33.395Z,81.50
2023-04-01T23:03:24.829Z,81.40
2023-04-01T23:05:56.342Z,81.40
2023-04-01T23:08:32.013Z,81.40
2023-04-01T23:11:03.561Z,81.50
2023-04-01T23:13:42.268Z,81.40
2023-04-01T23:16:09.193Z,81.40
2023-04-01T23:18:58.106Z,81.40
2023-04-01T23:21:30.158Z,81.30
2023-04-01T23:24:31.190Z,81.30
2023-04-01T23:27:07.289Z,81.30
2023-04-01T23:29:36.547Z,81.40
2023-04-01T23:32:06.393Z,81.40
2023-04-01T23:34:36.349Z,81.40
2023-04-01T23:37:13.373Z,81.50
2023-04-01T23:39:42.179Z,81.60
2023-04-01T23:42:13.517Z,81.60
2023-04-01T23:44:40.384Z,81.70
2023-04-01T23:47:07.726Z,81.60
2023-04-01T23:49:41.788Z,81.50
2023-04-01T23:52:43.924Z,81.60
2023-04-01T23:55:23.776Z,81.70
2023-04-01T23:58:14.605Z,81.80
